createdAt,value
2023-03-26T00:02:44.292Z,99619.66
2023-03-26T00:05:49.511Z,99608.75
2023-03-26T00:08:52.882Z,99600.88
2023-03-26T00:11:55.692Z,99601.13
2023-03-26T00:14:58.079Z,99587.50
2023-03-26T00:18:03.301Z,99591.19
2023-03-26T00:21:07.830Z,99601.22
2023-03-26T00:24:15.416Z,99577.78
2023-03-26T00:27:17.887Z,99579.72
2023-03-26T00:30:20.455Z,99590.56
2023-03-26T00:33:23.504Z,99590.09
2023-03-26T00:36:27.138Z,99584.88
2023-03-26T00:39:33.720Z,99588.75
2023-03-26T00:42:36.487Z,99587.47
2023-03-26T00:45:38.790Z,99588.44
2023-03-26T00:48:45.811Z,99582.16
2023-03-26T00:51:48.453Z,99560.66
2023-03-26T00:54:54.541Z,99583.03
2023-03-26T00:57:57.442Z,99581.41
2023-03-26T01:01:06.657Z,99584.41
2023-03-26T01:04:28.426Z,99575.38
2023-03-26T01:07:31.661Z,99525.28
2023-03-26T01:10:38.796Z,99577.50
2023-03-26T01:13:47.684Z,99579.09
2023-03-26T01:16:52.182Z,99569.16
2023-03-26T01:20:13.239Z,99579.66
2023-03-26T01:23:23.623Z,99581.13
2023-03-26T01:26:31.919Z,99597.03
2023-03-26T01:29:56.559Z,99602.72
2023-03-26T01:33:04.928Z,99586.31
2023-03-26T01:36:17.007Z,99596.78
2023-03-26T01:39:32.824Z,99570.50
2023-03-26T01:42:44.110Z,99572.44
2023-03-26T01:45:48.029Z,99567.78
2023-03-26T01:48:51.711Z,99594.22
2023-03-26T01:51:56.530Z,99584.88
2023-03-26T01:54:59.690Z,99570.56
2023-03-26T01:58:17.943Z,99587.97
2023-03-26T02:01:29.602Z,99563.56
2023-03-26T02:04:53.858Z,99587.78
2023-03-26T02:07:59.232Z,99593.66
2023-03-26T02:11:11.438Z,99592.22
2023-03-26T02:14:15.409Z,99591.16
2023-03-26T02:17:19.214Z,99594.97
2023-03-26T02:20:22.536Z,99590.03
2023-03-26T02:23:29.746Z,99606.50
2023-03-26T02:26:34.062Z,99595.50
2023-03-26T02:29:47.766Z,99613.06
2023-03-26T02:32:52.383Z,99607.00
2023-03-26T02:35:59.657Z,99597.41
2023-03-26T02:39:02.211Z,99593.28
2023-03-26T02:42:07.736Z,99587.47
2023-03-26T02:45:16.167Z,99579.31
2023-03-26T02:48:36.890Z,99587.31
2023-03-26T02:51:50.864Z,99577.94
2023-03-26T02:55:01.008Z,99581.81
2023-03-26T02:58:04.008Z,99581.41
2023-03-26T03:01:11.222Z,99575.75
2023-03-26T03:04:23.990Z,99575.84
2023-03-26T03:07:26.499Z,99576.25
2023-03-26T03:10:32.767Z,99589.09
2023-03-26T03:13:48.372Z,99587.38
2023-03-26T03:16:54.508Z,99590.84
2023-03-26T03:19:58.046Z,99592.84
2023-03-26T03:23:00.668Z,99587.59
2023-03-26T03:26:04.023Z,99589.84
2023-03-26T03:29:08.975Z,99599.97
2023-03-26T03:32:11.478Z,99607.03
2023-03-26T03:35:19.796Z,99596.00
2023-03-26T03:38:25.431Z,99597.63
2023-03-26T03:41:29.866Z,99592.34
2023-03-26T03:44:32.478Z,99582.38
2023-03-26T03:47:35.982Z,99584.59
2023-03-26T03:50:38.565Z,99584.97
2023-03-26T03:53:56.110Z,99610.31
2023-03-26T03:57:18.938Z,99614.84
2023-03-26T04:00:32.429Z,99617.72
2023-03-26T04:03:54.867Z,99598.97
2023-03-26T04:07:01.142Z,99613.19
2023-03-26T04:10:23.671Z,99604.97
2023-03-26T04:13:44.691Z,99629.25
2023-03-26T04:17:16.209Z,99623.72
2023-03-26T04:20:21.021Z,99629.16
2023-03-26T04:23:26.706Z,99633.28
2023-03-26T04:26:35.642Z,99623.84
2023-03-26T04:29:47.195Z,99621.28
2023-03-26T04:32:54.509Z,99597.72
2023-03-26T04:36:01.738Z,99612.75
2023-03-26T04:39:07.117Z,99616.22
2023-03-26T04:42:28.800Z,99604.66
2023-03-26T04:45:42.779Z,99606.38
2023-03-26T04:48:45.322Z,99603.25
2023-03-26T04:51:48.198Z,99615.03
2023-03-26T04:55:38.802Z,99611.56
2023-03-26T04:58:51.869Z,99613.91
2023-03-26T05:01:54.685Z,99601.72
2023-03-26T05:04:59.192Z,99613.16
2023-03-26T05:08:05.780Z,99609.66
2023-03-26T05:11:11.658Z,99615.06
2023-03-26T05:14:14.345Z,99595.53
2023-03-26T05:17:18.989Z,99595.41
2023-03-26T05:20:26.467Z,99604.97
2023-03-26T05:23:28.770Z,99593.47
2023-03-26T05:26:45.162Z,99594.16
2023-03-26T05:29:48.458Z,99600.00
2023-03-26T05:32:52.005Z,99594.97
2023-03-26T05:36:05.714Z,99589.22
2023-03-26T05:39:08.965Z,99588.19
2023-03-26T05:42:43.859Z,99591.38
2023-03-26T05:46:02.547Z,99598.19
2023-03-26T05:49:07.047Z,99607.56
2023-03-26T05:52:15.238Z,99601.09
2023-03-26T05:55:47.311Z,99605.13
2023-03-26T05:59:08.065Z,99594.94
2023-03-26T06:02:30.749Z,99601.94
2023-03-26T06:05:51.691Z,99594.81
2023-03-26T06:09:04.826Z,99595.47
2023-03-26T06:12:08.533Z,99591.84
2023-03-26T06:15:11.850Z,99591.34
2023-03-26T06:18:28.241Z,99592.34
2023-03-26T06:21:50.464Z,99580.47
2023-03-26T06:24:58.820Z,99581.03
2023-03-26T06:28:33.502Z,99575.16
2023-03-26T06:31:54.428Z,99571.09
2023-03-26T06:35:00.684Z,99581.22
2023-03-26T06:38:03.812Z,99583.00
2023-03-26T06:41:07.515Z,99593.69
2023-03-26T06:44:28.131Z,99588.66
2023-03-26T06:47:56.572Z,99590.72
2023-03-26T06:51:15.955Z,99572.97
2023-03-26T06:54:47.595Z,99587.16
2023-03-26T06:58:11.333Z,99589.31
2023-03-26T07:01:39.308Z,99590.28
2023-03-26T07:05:00.402Z,99585.97
2023-03-26T07:08:21.216Z,99582.25
2023-03-26T07:11:42.127Z,99564.84
2023-03-26T07:14:53.455Z,99572.25
2023-03-26T07:18:22.060Z,99570.78
2023-03-26T07:21:26.026Z,99569.78
2023-03-26T07:24:30.114Z,99574.75
2023-03-26T07:28:14.406Z,99576.84
2023-03-26T07:31:42.641Z,99589.63
2023-03-26T07:35:31.864Z,99591.06
2023-03-26T07:39:12.613Z,99596.47
2023-03-26T07:43:28.044Z,99599.31
2023-03-26T07:46:53.351Z,99591.66
2023-03-26T07:49:59.934Z,99589.50
2023-03-26T07:53:21.813Z,99599.66
2023-03-26T07:57:05.598Z,99596.53
2023-03-26T08:00:22.260Z,99598.00
2023-03-26T08:03:49.238Z,99595.38
2023-03-26T08:07:55.536Z,99590.59
2023-03-26T08:11:35.712Z,99583.63
2023-03-26T08:15:01.180Z,99582.81
2023-03-26T08:18:28.745Z,99586.06
2023-03-26T08:21:38.137Z,99577.03
2023-03-26T08:24:48.057Z,99563.03
2023-03-26T08:28:16.666Z,99563.78
2023-03-26T08:31:19.962Z,99573.81
2023-03-26T08:34:22.283Z,99574.84
2023-03-26T08:37:24.608Z,99562.25
2023-03-26T08:40:48.146Z,99577.56
2023-03-26T08:44:02.727Z,99570.56
2023-03-26T08:47:17.149Z,99572.72
2023-03-26T08:50:57.336Z,99585.31
2023-03-26T08:54:08.508Z,99587.78
2023-03-26T08:57:29.331Z,99573.81
2023-03-26T09:01:01.783Z,99568.13
2023-03-26T09:04:36.139Z,99565.66
2023-03-26T09:07:57.204Z,99567.50
2023-03-26T09:11:24.466Z,99559.97
2023-03-26T09:14:54.593Z,99568.78
2023-03-26T09:18:33.563Z,99563.22
2023-03-26T09:21:57.639Z,99564.84
2023-03-26T09:25:13.604Z,99554.50
2023-03-26T09:28:20.785Z,99551.31
2023-03-26T09:31:45.475Z,99541.28
2023-03-26T09:35:00.388Z,99550.28
2023-03-26T09:38:19.874Z,99543.06
2023-03-26T09:41:34.562Z,99533.63
2023-03-26T09:44:59.558Z,99532.84
2023-03-26T09:48:20.317Z,99539.09
2023-03-26T09:51:33.249Z,99534.94
2023-03-26T09:54:39.321Z,99529.41
2023-03-26T09:58:04.077Z,99506.72
2023-03-26T10:01:25.213Z,99506.00
2023-03-26T10:04:38.543Z,99497.41
2023-03-26T10:08:04.284Z,99476.47
2023-03-26T10:11:25.579Z,99485.34
2023-03-26T10:14:50.078Z,99477.72
2023-03-26T10:18:27.188Z,99463.88
2023-03-26T10:21:51.033Z,99465.25
2023-03-26T10:25:19.095Z,99479.75
2023-03-26T10:28:44.764Z,99469.28
2023-03-26T10:32:17.197Z,99485.16
2023-03-26T10:35:26.608Z,99486.63
2023-03-26T10:38:58.468Z,99493.28
2023-03-26T10:42:38.612Z,99527.88
2023-03-26T10:45:59.314Z,99522.59
2023-03-26T10:49:33.900Z,99513.81
2023-03-26T10:52:43.322Z,99484.72
2023-03-26T10:55:47.437Z,99445.81
2023-03-26T10:58:50.404Z,99440.97
2023-03-26T11:02:29.467Z,99445.44
2023-03-26T11:05:50.916Z,99432.66
2023-03-26T11:08:56.345Z,99425.16
2023-03-26T11:12:01.711Z,99417.44
2023-03-26T11:15:07.358Z,99417.50
2023-03-26T11:18:18.776Z,99409.91
2023-03-26T11:21:32.632Z,99401.28
2023-03-26T11:25:12.573Z,99415.97
2023-03-26T11:28:20.924Z,99409.41
2023-03-26T11:31:23.167Z,99387.53
2023-03-26T11:34:43.358Z,99364.84
2023-03-26T11:37:57.098Z,99372.59
2023-03-26T11:41:00.485Z,99372.03
2023-03-26T11:44:24.486Z,99346.78
2023-03-26T11:47:40.914Z,99343.09
2023-03-26T11:50:47.173Z,99351.75
2023-03-26T11:53:49.624Z,99337.47
2023-03-26T11:57:04.525Z,99326.72
2023-03-26T12:00:18.359Z,99323.19
2023-03-26T12:03:20.991Z,99310.25
2023-03-26T12:06:27.476Z,99311.13
2023-03-26T12:09:29.849Z,99281.34
2023-03-26T12:12:42.287Z,99290.78
2023-03-26T12:15:44.771Z,99287.84
2023-03-26T12:18:58.875Z,99273.06
2023-03-26T12:22:01.259Z,99274.88
2023-03-26T12:25:18.644Z,99274.69
2023-03-26T12:28:21.530Z,99271.09
2023-03-26T12:31:26.646Z,99234.69
2023-03-26T12:34:34.864Z,99256.19
2023-03-26T12:37:38.762Z,99236.38
2023-03-26T12:40:42.761Z,99233.91
2023-03-26T12:43:51.801Z,99231.50
2023-03-26T12:47:59.033Z,99210.94
2023-03-26T12:51:01.978Z,99214.94
2023-03-26T12:54:17.445Z,99199.03
2023-03-26T12:57:25.325Z,99183.53
2023-03-26T13:00:45.785Z,99208.06
2023-03-26T13:04:00.509Z,99196.44
2023-03-26T13:07:28.940Z,99192.94
2023-03-26T13:10:53.084Z,99195.00
2023-03-26T13:13:58.668Z,99191.13
2023-03-26T13:17:22.864Z,99182.94
2023-03-26T13:20:33.124Z,99179.41
2023-03-26T13:23:41.460Z,99168.84
2023-03-26T13:27:03.767Z,99155.88
2023-03-26T13:30:19.522Z,99150.97
2023-03-26T13:33:50.449Z,99117.38
2023-03-26T13:37:27.523Z,99144.84
2023-03-26T13:41:00.362Z,99126.91
2023-03-26T13:44:02.661Z,99131.88
2023-03-26T13:47:25.873Z,99107.00
2023-03-26T13:50:36.126Z,99124.09
2023-03-26T13:53:55.800Z,99118.78
2023-03-26T13:57:10.022Z,99125.47
2023-03-26T14:00:16.565Z,99106.69
2023-03-26T14:03:33.542Z,99111.06
2023-03-26T14:06:46.977Z,99093.81
2023-03-26T14:10:02.106Z,99093.81
2023-03-26T14:13:10.429Z,99081.34
2023-03-26T14:16:12.921Z,99084.13
2023-03-26T14:19:32.286Z,99074.56
2023-03-26T14:23:02.929Z,99081.53
2023-03-26T14:26:37.524Z,99071.72
2023-03-26T14:30:05.040Z,99068.44
2023-03-26T14:33:27.913Z,99068.66
2023-03-26T14:36:53.341Z,99053.38
2023-03-26T14:40:15.180Z,99057.38
2023-03-26T14:44:11.986Z,99049.19
2023-03-26T14:47:21.823Z,99047.00
2023-03-26T14:50:55.866Z,99023.03
2023-03-26T14:54:18.309Z,99029.72
2023-03-26T14:57:36.290Z,99040.50
2023-03-26T15:00:50.780Z,99025.41
2023-03-26T15:04:08.170Z,99023.38
2023-03-26T15:07:37.024Z,99008.41
2023-03-26T15:10:47.088Z,99008.41
2023-03-26T15:14:19.471Z,99009.72
2023-03-26T15:17:55.819Z,98997.34
2023-03-26T15:21:29.289Z,98994.88
2023-03-26T15:24:58.166Z,98991.28
2023-03-26T15:28:38.622Z,98986.19
2023-03-26T15:32:14.807Z,98980.72
2023-03-26T15:35:49.086Z,98979.59
2023-03-26T15:39:16.108Z,98975.47
2023-03-26T15:42:21.684Z,98977.81
2023-03-26T15:45:59.452Z,98980.19
2023-03-26T15:49:16.885Z,98967.78
2023-03-26T15:52:24.739Z,98964.97
2023-03-26T15:55:45.947Z,98945.94
2023-03-26T15:58:56.818Z,98965.25
2023-03-26T16:02:02.856Z,98959.00
2023-03-26T16:05:32.126Z,98938.22
2023-03-26T16:08:57.117Z,98931.41
2023-03-26T16:12:30.211Z,98936.22
2023-03-26T16:15:33.393Z,98912.84
2023-03-26T16:19:20.799Z,98921.88
2023-03-26T16:22:42.574Z,98923.00
2023-03-26T16:26:23.869Z,98901.97
2023-03-26T16:29:28.671Z,98896.09
2023-03-26T16:32:40.761Z,98894.50
2023-03-26T16:36:06.379Z,98900.44
2023-03-26T16:39:08.876Z,98895.22
2023-03-26T16:42:54.910Z,98880.75
2023-03-26T16:46:34.567Z,98895.94
2023-03-26T16:50:08.590Z,98895.81
2023-03-26T16:53:33.544Z,98892.75
2023-03-26T16:57:14.657Z,98897.59
2023-03-26T17:00:30.631Z,98896.38
2023-03-26T17:03:54.207Z,98891.69
2023-03-26T17:07:05.705Z,98898.03
2023-03-26T17:10:20.686Z,98884.66
2023-03-26T17:13:38.360Z,98912.00
2023-03-26T17:16:49.491Z,98897.09
2023-03-26T17:19:59.725Z,98894.22
2023-03-26T17:23:41.435Z,98895.34
2023-03-26T17:27:16.984Z,98907.41
2023-03-26T17:30:49.419Z,98892.72
2023-03-26T17:33:51.872Z,98891.34
2023-03-26T17:36:58.838Z,98904.41
2023-03-26T17:40:01.536Z,98909.53
2023-03-26T17:43:09.912Z,98899.91
2023-03-26T17:46:33.116Z,98899.34
2023-03-26T17:49:36.575Z,98888.81
2023-03-26T17:52:41.805Z,98901.06
2023-03-26T17:55:46.116Z,98894.06
2023-03-26T17:58:52.695Z,98888.78
2023-03-26T18:01:58.036Z,98892.81
2023-03-26T18:05:00.988Z,98886.59
2023-03-26T18:08:13.543Z,98887.16
2023-03-26T18:11:43.687Z,98894.56
2023-03-26T18:15:02.550Z,98896.44
2023-03-26T18:18:18.173Z,98881.19
2023-03-26T18:21:30.831Z,98887.53
2023-03-26T18:24:37.324Z,98882.72
2023-03-26T18:27:41.035Z,98872.06
2023-03-26T18:30:48.890Z,98874.69
2023-03-26T18:33:56.973Z,98883.28
2023-03-26T18:37:11.427Z,98881.59
2023-03-26T18:40:20.329Z,98874.75
2023-03-26T18:43:34.378Z,98864.63
2023-03-26T18:46:37.412Z,98857.56
2023-03-26T18:49:45.964Z,98849.16
2023-03-26T18:52:48.377Z,98838.31
2023-03-26T18:55:51.913Z,98844.56
2023-03-26T18:58:57.894Z,98840.38
2023-03-26T19:02:04.367Z,98841.97
2023-03-26T19:05:07.757Z,98824.81
2023-03-26T19:08:10.453Z,98818.81
2023-03-26T19:11:16.332Z,98818.97
2023-03-26T19:14:20.192Z,98821.03
2023-03-26T19:17:24.117Z,98819.53
2023-03-26T19:20:29.324Z,98806.97
2023-03-26T19:23:40.045Z,98815.22
2023-03-26T19:26:42.755Z,98806.31
2023-03-26T19:29:45.075Z,98792.44
2023-03-26T19:32:53.496Z,98792.63
2023-03-26T19:36:15.081Z,98792.00
2023-03-26T19:39:24.280Z,98787.03
2023-03-26T19:42:44.078Z,98789.09
2023-03-26T19:45:59.573Z,98771.78
2023-03-26T19:49:04.712Z,98758.16
2023-03-26T19:52:13.140Z,98764.84
2023-03-26T19:55:22.701Z,98758.16
2023-03-26T19:58:28.121Z,98737.84
2023-03-26T20:01:30.782Z,98733.75
2023-03-26T20:04:33.112Z,98726.09
2023-03-26T20:07:39.477Z,98733.50
2023-03-26T20:10:42.721Z,98713.78
2023-03-26T20:13:45.132Z,98714.88
2023-03-26T20:16:47.562Z,98707.28
2023-03-26T20:19:49.967Z,98698.28
2023-03-26T20:22:56.249Z,98694.31
2023-03-26T20:25:58.768Z,98668.25
2023-03-26T20:29:01.054Z,98673.28
2023-03-26T20:32:06.467Z,98652.75
2023-03-26T20:35:16.324Z,98654.34
2023-03-26T20:38:19.966Z,98646.94
2023-03-26T20:41:24.544Z,98646.44
2023-03-26T20:44:27.375Z,98649.50
2023-03-26T20:47:29.712Z,98642.88
2023-03-26T20:50:35.745Z,98644.81
2023-03-26T20:53:38.293Z,98633.00
2023-03-26T20:56:41.727Z,98641.25
2023-03-26T20:59:45.005Z,98640.75
2023-03-26T21:02:47.924Z,98644.44
2023-03-26T21:05:52.443Z,98635.63
2023-03-26T21:08:54.979Z,98617.31
2023-03-26T21:12:06.382Z,98634.91
2023-03-26T21:15:22.380Z,98619.09
2023-03-26T21:18:26.196Z,98629.91
2023-03-26T21:21:37.660Z,98633.63
2023-03-26T21:24:40.071Z,98632.06
2023-03-26T21:27:45.338Z,98629.44
2023-03-26T21:30:47.939Z,98615.63
2023-03-26T21:33:50.733Z,98618.25
2023-03-26T21:36:53.422Z,98624.13
2023-03-26T21:39:56.055Z,98632.22
2023-03-26T21:42:58.712Z,98651.25
2023-03-26T21:46:01.421Z,98644.97
2023-03-26T21:49:04.232Z,98673.06
2023-03-26T21:52:07.193Z,98669.44
2023-03-26T21:55:11.587Z,98662.31
2023-03-26T21:58:35.871Z,98673.31
2023-03-26T22:01:49.870Z,98660.06
2023-03-26T22:04:57.379Z,98667.00
2023-03-26T22:08:04.887Z,98668.72
2023-03-26T22:11:09.650Z,98663.34
2023-03-26T22:14:13.420Z,98660.03
2023-03-26T22:17:15.698Z,98653.13
2023-03-26T22:20:19.625Z,98649.13
2023-03-26T22:23:22.292Z,98647.84
2023-03-26T22:26:25.105Z,98645.19
2023-03-26T22:29:27.573Z,98639.31
2023-03-26T22:32:32.830Z,98636.69
2023-03-26T22:35:35.425Z,98637.19
2023-03-26T22:38:37.750Z,98622.28
2023-03-26T22:41:40.049Z,98622.25
2023-03-26T22:44:42.381Z,98636.38
2023-03-26T22:47:45.175Z,98632.44
2023-03-26T22:50:58.422Z,98630.88
2023-03-26T22:54:00.753Z,98620.19
2023-03-26T22:57:03.859Z,98625.47
2023-03-26T23:00:14.762Z,98611.88
2023-03-26T23:03:17.720Z,98616.88
2023-03-26T23:06:21.263Z,98607.00
2023-03-26T23:09:24.960Z,98612.59
2023-03-26T23:12:27.380Z,98610.75
2023-03-26T23:15:30.539Z,98608.44
2023-03-26T23:18:33.218Z,98594.88
2023-03-26T23:21:36.737Z,98595.16
2023-03-26T23:24:39.870Z,98591.72
2023-03-26T23:27:42.281Z,98582.13
2023-03-26T23:30:47.747Z,98594.06
2023-03-26T23:33:50.498Z,98586.63
2023-03-26T23:36:53.889Z,98575.44
2023-03-26T23:39:56.157Z,98577.31
2023-03-26T23:42:58.464Z,98561.59
2023-03-26T23:46:00.782Z,98560.31
2023-03-26T23:49:03.828Z,98550.16
2023-03-26T23:52:06.417Z,98530.16
2023-03-26T23:55:09.058Z,98526.13
2023-03-26T23:58:11.370Z,98528.56
